createdAt,value
2019-04-30T00:02:40.924Z,9.40
2019-04-30T00:07:46.211Z,9.20
2019-04-30T00:12:49.935Z,9.10
2019-04-30T00:18:01.838Z,9.00
2019-04-30T00:23:05.663Z,8.90
2019-04-30T00:28:16.004Z,9.10
2019-04-30T00:33:25.157Z,9.10
2019-04-30T00:38:29.631Z,9.30
2019-04-30T00:43:35.351Z,9.10
2019-04-30T00:48:50.812Z,8.90
2019-04-30T00:53:59.112Z,8.70
2019-04-30T00:59:10.427Z,8.70
2019-04-30T01:04:27.906Z,8.60
2019-04-30T01:09:30.724Z,8.50
2019-04-30T01:14:38.600Z,8.60
2019-04-30T01:19:45.963Z,8.80
2019-04-30T01:24:52.536Z,9.00
2019-04-30T01:29:58.483Z,9.40
2019-04-30T01:35:04.022Z,9.60
2019-04-30T01:40:13.674Z,9.30
2019-04-30T01:45:14.071Z,9.30
2019-04-30T01:50:19.356Z,9.30
2019-04-30T01:55:31.273Z,9.30
2019-04-30T02:00:36.598Z,9.40
2019-04-30T02:05:40.420Z,9.00
2019-04-30T02:10:44.101Z,8.70
2019-04-30T02:15:59.766Z,9.10
2019-04-30T02:21:06.410Z,9.20
2019-04-30T02:26:10.104Z,8.90
2019-04-30T02:31:13.703Z,8.80
2019-04-30T02:36:33.900Z,8.90
2019-04-30T02:41:41.124Z,8.50
2019-04-30T02:46:45.982Z,8.40
2019-04-30T02:51:53.887Z,8.30
2019-04-30T02:57:02.115Z,8.00
2019-04-30T03:02:11.527Z,8.10
2019-04-30T03:07:21.808Z,7.90
2019-04-30T03:12:25.603Z,7.90
2019-04-30T03:17:33.800Z,7.80
2019-04-30T03:22:39.370Z,7.80
2019-04-30T03:27:42.681Z,7.80
2019-04-30T03:32:56.059Z,7.70
2019-04-30T03:37:55.906Z,7.80
2019-04-30T03:43:02.984Z,7.90
2019-04-30T03:48:10.210Z,8.00
2019-04-30T03:53:13.399Z,8.10
2019-04-30T03:58:21.290Z,7.80
2019-04-30T04:03:29.150Z,7.90
2019-04-30T04:08:33.804Z,8.10
2019-04-30T04:13:43.570Z,8.30
2019-04-30T04:18:50.182Z,8.50
2019-04-30T04:24:00.236Z,7.90
2019-04-30T04:29:06.337Z,7.70
2019-04-30T04:34:19.720Z,7.60
2019-04-30T04:39:23.586Z,7.20
2019-04-30T04:44:29.499Z,7.20
2019-04-30T04:49:36.098Z,7.40
2019-04-30T04:54:40.044Z,7.90
2019-04-30T04:59:49.885Z,7.60
2019-04-30T05:04:54.581Z,7.90
2019-04-30T05:10:00.554Z,7.90
2019-04-30T05:15:05.180Z,8.00
2019-04-30T05:20:10.034Z,8.00
2019-04-30T05:25:13.971Z,8.30
2019-04-30T05:30:19.825Z,8.40
2019-04-30T05:35:28.411Z,8.00
2019-04-30T05:40:43.030Z,7.90
2019-04-30T05:45:49.523Z,8.20
2019-04-30T05:50:59.213Z,8.40
2019-04-30T05:56:09.455Z,8.50
2019-04-30T06:01:13.281Z,8.60
2019-04-30T06:06:22.335Z,8.70
2019-04-30T06:11:44.088Z,8.20
2019-04-30T06:16:51.702Z,8.00
2019-04-30T06:22:05.070Z,8.10
2019-04-30T06:27:03.647Z,8.40
2019-04-30T06:32:10.728Z,8.20
2019-04-30T06:37:19.424Z,8.00
2019-04-30T06:42:24.440Z,8.10
2019-04-30T06:47:34.562Z,8.10
2019-04-30T06:52:39.024Z,8.30
2019-04-30T06:57:42.808Z,8.40
2019-04-30T07:02:49.425Z,8.20
2019-04-30T07:08:12.089Z,8.30
2019-04-30T07:13:23.396Z,8.20
2019-04-30T07:18:28.788Z,8.50
2019-04-30T07:23:32.269Z,8.30
2019-04-30T07:28:44.660Z,8.10
2019-04-30T07:33:43.810Z,8.40
2019-04-30T07:38:56.163Z,8.20
2019-04-30T07:43:59.350Z,8.40
2019-04-30T07:49:05.849Z,8.40
2019-04-30T07:54:09.564Z,8.30
2019-04-30T07:59:15.880Z,8.20
2019-04-30T08:04:29.340Z,7.90
2019-04-30T08:09:39.671Z,8.00
2019-04-30T08:14:44.474Z,7.90
2019-04-30T08:19:48.943Z,7.90
2019-04-30T08:24:58.678Z,8.50
2019-04-30T08:30:02.459Z,8.70
2019-04-30T08:35:11.594Z,8.60
2019-04-30T08:40:19.036Z,8.80
2019-04-30T08:45:23.111Z,8.60
2019-04-30T08:50:26.804Z,8.50
2019-04-30T08:55:33.558Z,8.70
2019-04-30T09:00:46.033Z,8.60
2019-04-30T09:05:52.603Z,8.70
2019-04-30T09:10:56.229Z,8.70
2019-04-30T09:15:59.845Z,8.80
2019-04-30T09:21:06.471Z,8.90
2019-04-30T09:26:12.011Z,9.30
2019-04-30T09:31:19.861Z,9.30
2019-04-30T09:36:23.529Z,9.30
2019-04-30T09:41:28.790Z,9.20
2019-04-30T09:46:35.537Z,9.50
2019-04-30T09:51:39.788Z,9.80
2019-04-30T09:56:43.881Z,9.80
2019-04-30T10:01:47.630Z,9.80
2019-04-30T10:06:54.696Z,9.60
2019-04-30T10:12:09.689Z,9.30
2019-04-30T10:17:22.486Z,9.20
2019-04-30T10:22:26.021Z,9.50
2019-04-30T10:27:29.786Z,9.80
2019-04-30T10:32:37.999Z,10.20
2019-04-30T10:37:41.675Z,10.10
2019-04-30T10:42:51.310Z,10.20
2019-04-30T10:47:56.927Z,10.20
2019-04-30T10:53:00.614Z,10.00
2019-04-30T10:58:09.527Z,10.30
2019-04-30T11:03:22.777Z,10.10
2019-04-30T11:08:29.039Z,10.40
2019-04-30T11:13:34.366Z,10.60
2019-04-30T11:18:43.039Z,10.10
2019-04-30T11:23:49.411Z,10.50
2019-04-30T11:28:53.575Z,10.70
2019-04-30T11:34:07.341Z,11.10
2019-04-30T11:39:12.684Z,11.10
2019-04-30T11:44:28.489Z,10.20
2019-04-30T11:49:27.574Z,10.50
2019-04-30T11:54:35.572Z,10.40
2019-04-30T11:59:46.003Z,10.30
2019-04-30T12:04:49.726Z,10.00
2019-04-30T12:09:59.561Z,10.00
2019-04-30T12:15:09.288Z,10.00
2019-04-30T12:20:12.839Z,10.00
2019-04-30T12:25:18.568Z,10.20
2019-04-30T12:30:22.559Z,10.30
2019-04-30T12:35:28.748Z,10.40
2019-04-30T12:40:32.552Z,10.70
2019-04-30T12:45:36.219Z,10.50
2019-04-30T12:50:50.191Z,10.80
2019-04-30T12:56:13.726Z,10.60
2019-04-30T13:01:17.663Z,10.90
2019-04-30T13:06:25.021Z,11.30
2019-04-30T13:11:30.805Z,11.30
2019-04-30T13:16:34.357Z,11.30
2019-04-30T13:21:39.518Z,11.50
2019-04-30T13:26:46.208Z,11.30
2019-04-30T13:31:58.963Z,11.90
2019-04-30T13:37:05.196Z,12.40
2019-04-30T13:42:17.632Z,12.80
2019-04-30T13:47:19.167Z,12.30
2019-04-30T13:52:25.814Z,12.80
2019-04-30T13:57:29.414Z,12.60
2019-04-30T14:02:34.671Z,13.10
2019-04-30T14:07:42.656Z,12.50
2019-04-30T14:12:48.505Z,12.40
2019-04-30T14:17:52.298Z,12.40
2019-04-30T14:23:08.513Z,12.10
2019-04-30T14:28:22.074Z,11.90
2019-04-30T14:33:29.370Z,12.70
2019-04-30T14:38:34.655Z,12.80
2019-04-30T14:43:42.443Z,13.40
2019-04-30T14:48:51.260Z,12.60
2019-04-30T14:54:05.583Z,12.50
2019-04-30T14:59:28.973Z,12.60
2019-04-30T15:04:33.973Z,13.00
2019-04-30T15:09:37.759Z,13.30
2019-04-30T15:14:43.076Z,13.00
2019-04-30T15:19:49.333Z,12.60
2019-04-30T15:24:59.239Z,12.60
2019-04-30T15:30:08.719Z,12.90
2019-04-30T15:35:12.581Z,12.70
2019-04-30T15:40:18.894Z,12.80
2019-04-30T15:45:22.770Z,11.90
2019-04-30T15:50:32.288Z,11.70
2019-04-30T15:55:35.915Z,12.30
2019-04-30T16:00:51.561Z,12.30
2019-04-30T16:05:56.454Z,12.70
2019-04-30T16:11:13.835Z,12.60
2019-04-30T16:16:19.205Z,13.10
2019-04-30T16:21:25.909Z,12.10
2019-04-30T16:26:31.165Z,11.60
2019-04-30T16:31:39.143Z,11.60
2019-04-30T16:36:43.031Z,11.30
2019-04-30T16:41:46.724Z,11.60
2019-04-30T16:46:50.347Z,12.00
2019-04-30T16:51:54.242Z,12.20
2019-04-30T16:57:04.198Z,12.20
2019-04-30T17:02:13.074Z,12.30
2019-04-30T17:07:30.495Z,12.20
2019-04-30T17:12:38.725Z,12.10
2019-04-30T17:17:45.723Z,12.50
2019-04-30T17:22:49.722Z,12.50
2019-04-30T17:27:55.706Z,12.30
2019-04-30T17:33:04.982Z,12.40
2019-04-30T17:38:08.760Z,12.60
2019-04-30T17:43:12.391Z,12.90
2019-04-30T17:48:17.583Z,12.60
2019-04-30T17:53:21.290Z,12.30
2019-04-30T17:58:29.460Z,12.30
2019-04-30T18:03:34.370Z,12.30
2019-04-30T18:08:37.965Z,12.10
2019-04-30T18:13:44.439Z,11.90
2019-04-30T18:18:51.206Z,11.90
2019-04-30T18:24:14.395Z,12.00
2019-04-30T18:29:18.023Z,12.00
2019-04-30T18:34:32.095Z,12.00
2019-04-30T18:39:37.319Z,11.80
2019-04-30T18:44:45.728Z,11.70
2019-04-30T18:49:49.645Z,12.00
2019-04-30T18:54:53.505Z,12.00
2019-04-30T19:00:01.691Z,12.10
2019-04-30T19:05:10.965Z,11.90
2019-04-30T19:10:35.704Z,11.60
2019-04-30T19:16:22.058Z,11.60
2019-04-30T19:21:04.779Z,11.60
2019-04-30T19:26:11.407Z,11.40
2019-04-30T19:31:19.928Z,11.00
2019-04-30T19:36:34.902Z,10.90
2019-04-30T19:41:30.570Z,10.90
2019-04-30T19:46:41.926Z,10.90
2019-04-30T19:51:46.412Z,10.70
2019-04-30T19:56:53.196Z,10.70
2019-04-30T20:01:56.825Z,11.00
2019-04-30T20:07:02.514Z,11.20
2019-04-30T20:12:06.144Z,11.10
2019-04-30T20:17:13.213Z,11.20
2019-04-30T20:22:19.423Z,11.00
2019-04-30T20:27:32.018Z,11.00
2019-04-30T20:32:38.135Z,11.00
2019-04-30T20:38:05.745Z,10.80
2019-04-30T20:43:09.522Z,10.10
2019-04-30T20:48:13.108Z,9.50
2019-04-30T20:53:19.764Z,9.90
2019-04-30T20:58:23.684Z,10.30
2019-04-30T21:03:29.387Z,10.20
2019-04-30T21:08:35.249Z,10.10
2019-04-30T21:13:41.499Z,10.10
2019-04-30T21:18:45.122Z,10.00
2019-04-30T21:23:50.395Z,10.00
2019-04-30T21:29:00.782Z,10.00
2019-04-30T21:34:20.730Z,9.70
2019-04-30T21:39:27.439Z,9.30
2019-04-30T21:44:35.419Z,9.10
2019-04-30T21:49:39.283Z,9.20
2019-04-30T21:54:48.702Z,9.40
2019-04-30T21:59:59.401Z,9.60
2019-04-30T22:05:03.396Z,9.50
2019-04-30T22:10:08.025Z,9.50
2019-04-30T22:15:13.366Z,9.90
2019-04-30T22:20:20.755Z,10.30
2019-04-30T22:25:26.355Z,10.20
2019-04-30T22:30:44.530Z,9.80
2019-04-30T22:35:52.752Z,9.90
2019-04-30T22:40:58.694Z,10.20
2019-04-30T22:46:07.097Z,9.10
2019-04-30T22:51:10.720Z,8.90
2019-04-30T22:56:14.588Z,9.60
2019-04-30T23:01:33.913Z,9.50
2019-04-30T23:06:37.928Z,9.40
2019-04-30T23:11:43.364Z,9.20
2019-04-30T23:16:47.147Z,9.20
2019-04-30T23:21:53.990Z,9.60
2019-04-30T23:26:57.856Z,9.50
2019-04-30T23:32:01.663Z,9.60
2019-04-30T23:37:09.573Z,9.40
2019-04-30T23:42:13.199Z,9.40
2019-04-30T23:47:18.544Z,9.60
2019-04-30T23:52:23.816Z,9.80
2019-04-30T23:57:27.482Z,9.30
